Time;durP1;ratioP1;P1;durP2;ratioP2;P2;SDS_P1;SDS_P2;PMS_P1;PMS_P2;Temp;Humidity;BMP_temperature;BMP_pressure;BME280_temperature;BME280_humidity;BME280_pressure;Samples;Min_cycle;Max_cycle;Signal;HPM_P1;HPM_P2
2023/05/26 00:02:52;;;;;;;5.00;4.35;;;;;;;12.34;80.57;100834.38;10423580;28;20080;-71
2023/05/26 00:07:54;;;;;;;5.45;4.85;;;;;;;12.21;81.40;100840.00;10423556;28;20069;-71
2023/05/26 00:12:55;;;;;;;5.65;4.50;;;;;;;12.17;81.58;100838.34;10423402;28;20570;-70
2023/05/26 00:17:57;;;;;;;5.18;4.68;;;;;;;12.02;82.39;100836.97;10422508;28;20049;-71
2023/05/26 00:22:59;;;;;;;5.85;4.68;;;;;;;11.90;83.50;100834.63;10424236;28;20069;-71
2023/05/26 00:28:01;;;;;;;6.75;5.07;;;;;;;11.92;83.39;100832.84;10423093;28;20033;-71
2023/05/26 00:33:04;;;;;;;6.57;4.97;;;;;;;12.12;82.41;100836.69;10423309;28;20199;-71
2023/05/26 00:38:06;;;;;;;6.55;5.00;;;;;;;11.86;83.01;100844.38;10421712;28;20069;-71
2023/05/26 00:43:08;;;;;;;6.22;4.75;;;;;;;11.55;85.78;100844.19;10422010;28;20064;-71
2023/05/26 00:48:10;;;;;;;6.75;5.35;;;;;;;11.40;86.78;100845.44;10420860;28;20061;-70
2023/05/26 00:53:12;;;;;;;7.40;5.32;;;;;;;11.33;87.89;100836.81;10421215;28;20041;-71
2023/05/26 00:58:14;;;;;;;6.43;5.32;;;;;;;11.25;89.83;100835.25;10421275;28;20136;-71
2023/05/26 01:03:16;;;;;;;7.68;5.97;;;;;;;11.22;90.02;100837.94;10421921;28;20041;-71
2023/05/26 01:08:19;;;;;;;6.10;5.45;;;;;;;11.16;90.35;100835.44;10420963;28;20442;-71
2023/05/26 01:13:27;;;;;;;5.80;5.05;;;;;;;11.09;90.56;100832.94;10419527;28;20053;-73
2023/05/26 01:18:42;;;;;;;5.95;5.45;;;;;;;11.03;91.56;100838.34;10420743;28;20033;-71
2023/05/26 01:23:47;;;;;;;6.78;5.68;;;;;;;10.92;93.38;100837.66;10418781;28;20053;-71
2023/05/26 01:28:59;;;;;;;8.45;5.70;;;;;;;10.90;93.37;100833.34;10419742;28;20041;-71
2023/05/26 01:34:05;;;;;;;7.20;5.73;;;;;;;10.96;92.24;100831.44;10418011;28;20060;-72
2023/05/26 01:39:08;;;;;;;7.38;5.72;;;;;;;10.88;92.68;100828.09;10419016;28;20041;-72
2023/05/26 01:44:41;;;;;;;6.07;5.00;;;;;;;10.94;91.93;100833.25;10418238;28;20068;-72
2023/05/26 01:49:46;;;;;;;10.38;5.60;;;;;;;10.87;91.98;100829.00;10416882;28;20056;-70
2023/05/26 01:54:54;;;;;;;6.22;5.63;;;;;;;10.63;95.32;100827.75;10418434;28;20486;-72
2023/05/26 01:59:56;;;;;;;6.93;6.05;;;;;;;10.48;97.28;100831.50;10418089;28;20038;-72
2023/05/26 02:04:58;;;;;;;6.05;5.55;;;;;;;10.63;95.58;100830.38;10419019;28;20418;-72
2023/05/26 02:09:59;;;;;;;8.20;6.57;;;;;;;11.04;93.27;100833.94;10418088;28;20049;-72
2023/05/26 02:15:02;;;;;;;7.25;5.97;;;;;;;10.48;97.12;100828.88;10416810;28;20511;-72
2023/05/26 02:20:04;;;;;;;7.05;6.25;;;;;;;10.58;96.74;100835.72;10419184;28;20120;-72
2023/05/26 02:25:07;;;;;;;6.70;6.05;;;;;;;10.76;94.84;100847.66;10416468;28;20057;-72
2023/05/26 02:30:09;;;;;;;7.80;6.00;;;;;;;10.57;96.63;100843.63;10418150;28;20471;-71
2023/05/26 02:35:11;;;;;;;6.60;6.00;;;;;;;10.53;96.72;100848.06;10415929;28;20132;-72
2023/05/26 02:40:13;;;;;;;8.13;7.28;;;;;;;10.19;99.78;100839.91;10416850;28;20056;-71
2023/05/26 02:45:16;;;;;;;6.28;5.78;;;;;;;10.21;99.92;100845.13;10415339;28;20064;-73
2023/05/26 02:50:19;;;;;;;8.85;6.75;;;;;;;10.30;100.00;100850.25;10400333;28;20045;-71
2023/05/26 02:55:21;;;;;;;9.05;7.00;;;;;;;10.43;99.54;100846.50;10417854;28;20038;-71
2023/05/26 03:00:23;;;;;;;7.53;6.68;;;;;;;10.90;97.69;100843.88;10417551;28;20124;-71
2023/05/26 03:05:25;;;;;;;7.75;7.05;;;;;;;11.04;94.78;100850.59;10415621;28;20046;-71
2023/05/26 03:10:26;;;;;;;8.68;6.68;;;;;;;10.75;98.20;100850.28;10420118;28;20054;-71
2023/05/26 03:15:36;;;;;;;7.45;6.75;;;;;;;10.85;98.44;100855.34;10424003;28;20053;-72
2023/05/26 03:20:46;;;;;;;8.05;7.00;;;;;;;10.82;97.19;100842.25;10424723;28;20080;-71
2023/05/26 03:25:48;;;;;;;7.43;6.78;;;;;;;10.88;97.09;100840.41;10424147;28;20133;-71
2023/05/26 03:30:51;;;;;;;7.75;6.95;;;;;;;10.94;95.82;100838.53;10407673;28;20053;-71
2023/05/26 03:35:53;;;;;;;7.00;6.05;;;;;;;10.96;96.76;100831.44;10423078;28;20041;-71
2023/05/26 03:40:55;;;;;;;7.75;6.97;;;;;;;11.38;93.34;100834.09;10425244;28;20124;-71
2023/05/26 03:45:57;;;;;;;7.80;7.15;;;;;;;11.30;95.46;100830.75;10423147;28;20572;-71
2023/05/26 03:50:59;;;;;;;7.65;6.85;;;;;;;11.22;95.46;100822.16;10422282;28;20048;-71
2023/05/26 03:56:06;;;;;;;9.70;7.70;;;;;;;11.24;95.07;100830.84;10422341;28;20051;-72
2023/05/26 04:01:07;;;;;;;9.57;7.78;;;;;;;11.35;94.41;100824.47;10424858;28;20072;-71
2023/05/26 04:06:09;;;;;;;6.90;6.22;;;;;;;11.44;94.48;100827.81;10434046;22;20417;-71
2023/05/26 04:11:11;;;;;;;8.70;7.68;;;;;;;11.52;93.52;100828.50;10420792;28;20561;-72
2023/05/26 04:16:13;;;;;;;9.52;8.13;;;;;;;11.56;95.00;100828.38;10420385;28;20490;-72
2023/05/26 04:21:15;;;;;;;8.85;8.02;;;;;;;11.64;94.05;100825.56;10419813;28;20120;-72
2023/05/26 04:26:18;;;;;;;10.30;7.88;;;;;;;11.80;93.55;100828.69;10420239;28;20104;-72
2023/05/26 04:31:54;;;;;;;8.57;7.75;;;;;;;11.84;93.29;100840.94;10346174;28;20470;-72
2023/05/26 04:37:35;;;;;;;9.35;7.40;;;;;;;11.85;93.10;100845.28;10374421;28;20046;-72
2023/05/26 04:42:37;;;;;;;13.32;8.85;;;;;;;11.91;92.15;100844.28;10375151;28;20527;-73
2023/05/26 04:47:39;;;;;;;10.30;8.00;;;;;;;12.01;91.48;100848.44;10357927;28;20061;-73
2023/05/26 04:52:41;;;;;;;10.38;7.88;;;;;;;12.04;91.20;100866.78;10374124;28;20062;-72
2023/05/26 04:57:43;;;;;;;12.88;7.40;;;;;;;12.30;90.54;100852.94;10373815;28;20088;-72
2023/05/26 05:02:45;;;;;;;8.90;8.10;;;;;;;12.32;89.89;100857.28;10356878;28;20050;-72
2023/05/26 05:07:53;;;;;;;9.88;8.05;;;;;;;12.46;90.01;100863.97;10390246;28;20145;-74
2023/05/26 05:12:55;;;;;;;8.90;8.10;;;;;;;12.58;89.82;100864.53;10418804;28;20120;-73
2023/05/26 05:17:58;;;;;;;11.10;10.25;;;;;;;12.78;89.57;100868.38;10416665;28;20041;-73
2023/05/26 05:23:00;;;;;;;8.70;7.85;;;;;;;12.72;90.23;100868.56;10417958;28;20537;-72
2023/05/26 05:28:02;;;;;;;8.70;7.80;;;;;;;13.09;87.47;100876.31;10416230;28;20510;-73
2023/05/26 05:33:06;;;;;;;10.00;8.70;;;;;;;13.12;88.49;100884.13;10415303;28;20096;-73
2023/05/26 05:38:08;;;;;;;10.68;9.68;;;;;;;13.02;88.61;100891.47;10417855;28;20030;-72
2023/05/26 05:43:10;;;;;;;13.90;8.95;;;;;;;13.00;89.74;100898.53;10415848;28;20099;-72
2023/05/26 05:48:12;;;;;;;10.77;8.90;;;;;;;13.27;88.10;100898.69;10422447;28;20083;-68
2023/05/26 05:53:26;;;;;;;10.88;9.40;;;;;;;13.62;85.58;100905.56;10415605;28;20132;-68
2023/05/26 05:58:28;;;;;;;9.43;8.38;;;;;;;13.52;85.34;100907.63;10414487;28;20052;-68
2023/05/26 06:03:30;;;;;;;8.95;8.02;;;;;;;13.67;83.43;100916.84;10416465;28;20047;-68
2023/05/26 06:08:32;;;;;;;8.30;7.35;;;;;;;14.08;79.21;100915.59;10417757;28;20041;-68
2023/05/26 06:13:34;;;;;;;9.23;8.35;;;;;;;14.57;78.31;100918.41;10418593;28;20091;-69
2023/05/26 06:18:37;;;;;;;10.32;8.60;;;;;;;13.89;79.11;100923.22;10416521;28;20069;-68
2023/05/26 06:23:39;;;;;;;8.25;7.50;;;;;;;14.45;77.76;100924.94;10414134;28;20052;-69
2023/05/26 06:28:41;;;;;;;7.70;7.00;;;;;;;14.93;74.39;100926.00;10413825;28;20042;-68
2023/05/26 06:33:43;;;;;;;8.70;7.80;;;;;;;15.19;74.15;100930.34;10415240;28;20052;-68
2023/05/26 06:38:45;;;;;;;9.63;7.07;;;;;;;15.61;69.72;100928.72;10413716;28;20041;-68
2023/05/26 06:43:47;;;;;;;8.40;7.45;;;;;;;15.23;71.06;100931.94;10413371;28;20056;-67
2023/05/26 06:48:49;;;;;;;8.23;7.32;;;;;;;15.24;73.08;100934.56;10413499;28;20104;-68
2023/05/26 06:54:09;;;;;;;11.13;7.93;;;;;;;15.30;69.32;100939.63;10413431;28;20056;-69
2023/05/26 06:59:12;;;;;;;10.15;7.10;;;;;;;15.58;69.39;100943.88;10414304;28;20092;-68
2023/05/26 07:04:14;;;;;;;10.27;7.53;;;;;;;15.61;68.94;100944.63;10413291;28;20046;-69
2023/05/26 07:09:17;;;;;;;9.73;7.80;;;;;;;15.48;69.20;100945.16;10414607;28;20099;-69
2023/05/26 07:14:29;;;;;;;11.20;7.55;;;;;;;15.66;68.28;100951.56;10415079;28;20064;-69
2023/05/26 07:19:31;;;;;;;12.18;8.27;;;;;;;15.64;69.08;100946.34;10414687;28;20503;-69
2023/05/26 07:24:33;;;;;;;9.32;6.47;;;;;;;15.90;67.85;100950.63;10413918;28;20041;-69
2023/05/26 07:29:37;;;;;;;10.45;6.95;;;;;;;16.16;65.48;100949.59;10412742;28;20038;-68
2023/05/26 07:34:38;;;;;;;9.90;6.18;;;;;;;16.93;63.80;100941.97;10413949;28;20061;-69
2023/05/26 07:39:40;;;;;;;8.15;6.70;;;;;;;16.89;63.20;100940.38;10412749;28;20435;-68
2023/05/26 07:44:42;;;;;;;9.60;6.93;;;;;;;16.48;63.80;100942.97;10413770;28;20052;-68
2023/05/26 07:49:43;;;;;;;13.25;6.90;;;;;;;17.00;64.67;100951.41;10414587;28;20124;-69
2023/05/26 07:54:45;;;;;;;10.15;6.07;;;;;;;17.17;62.50;100945.31;10417447;28;20129;-68
2023/05/26 07:59:47;;;;;;;9.32;6.22;;;;;;;18.03;58.44;100944.03;10421145;28;20109;-68
2023/05/26 08:04:49;;;;;;;10.15;5.93;;;;;;;18.17;58.08;100936.25;10420955;28;20045;-67
2023/05/26 08:09:52;;;;;;;12.32;6.50;;;;;;;18.05;58.71;100940.34;10421675;28;20107;-69
2023/05/26 08:14:54;;;;;;;10.00;5.70;;;;;;;18.71;54.59;100942.44;10420957;28;20045;-67
2023/05/26 08:19:56;;;;;;;10.60;5.10;;;;;;;19.14;53.77;100942.88;10420477;28;20041;-68
2023/05/26 08:24:58;;;;;;;11.63;4.90;;;;;;;19.41;52.02;100938.72;10431107;28;20131;-70
2023/05/26 08:30:00;;;;;;;14.32;6.28;;;;;;;19.21;51.54;100936.25;10420970;28;20059;-70
2023/05/26 08:35:02;;;;;;;10.68;5.32;;;;;;;18.10;55.88;100941.00;10420253;28;20046;-70
2023/05/26 08:40:04;;;;;;;13.63;5.53;;;;;;;17.92;57.13;100939.22;10420254;28;20061;-69
2023/05/26 08:45:07;;;;;;;9.95;5.15;;;;;;;18.84;54.52;100937.34;10418671;28;20045;-71
2023/05/26 08:50:10;;;;;;;13.38;4.75;;;;;;;18.61;52.75;100930.50;10423024;28;20044;-72
2023/05/26 08:55:13;;;;;;;13.23;4.35;;;;;;;18.28;54.77;100931.28;10420721;28;20068;-71
2023/05/26 09:00:16;;;;;;;17.40;5.38;;;;;;;18.37;55.27;100940.56;10460960;28;20487;-70
2023/05/26 09:05:18;;;;;;;12.38;4.80;;;;;;;18.13;54.25;100940.84;10461334;28;20558;-70
2023/05/26 09:10:31;;;;;;;10.60;4.60;;;;;;;18.89;51.61;100940.63;10465533;28;20047;-69
2023/05/26 09:15:36;;;;;;;11.00;4.82;;;;;;;18.83;50.93;100941.81;10462397;28;20052;-70
2023/05/26 09:20:50;;;;;;;12.35;4.28;;;;;;;18.46;54.17;100940.16;10466088;28;20079;-69
2023/05/26 09:25:52;;;;;;;19.95;6.07;;;;;;;18.70;53.75;100945.19;10461710;28;20083;-71
2023/05/26 09:30:54;;;;;;;11.90;5.28;;;;;;;19.03;52.27;100945.25;10459518;28;20052;-71
2023/05/26 09:35:56;;;;;;;10.40;4.70;;;;;;;19.15;51.30;100941.94;10460190;28;20099;-71
2023/05/26 09:40:57;;;;;;;11.55;4.47;;;;;;;19.45;50.39;100941.25;10460013;28;20041;-71
2023/05/26 09:46:00;;;;;;;8.15;4.35;;;;;;;19.84;49.02;100952.41;10459635;28;20071;-71
2023/05/26 09:51:02;;;;;;;13.75;5.03;;;;;;;19.81;49.09;100949.06;10459376;28;20056;-71
2023/05/26 09:56:05;;;;;;;10.45;4.82;;;;;;;20.09;48.41;100938.53;10462381;28;20047;-71
2023/05/26 10:01:09;;;;;;;12.27;3.30;;;;;;;19.94;44.58;100949.25;10456573;28;20041;-69
2023/05/26 10:06:11;;;;;;;8.93;4.53;;;;;;;19.93;42.69;100944.84;10434862;22;20487;-70
2023/05/26 10:11:14;;;;;;;7.72;3.55;;;;;;;20.33;43.05;100946.97;10379841;28;20112;-71
2023/05/26 10:16:16;;;;;;;8.63;3.65;;;;;;;20.53;43.12;100950.31;10377716;28;20045;-71
2023/05/26 10:21:24;;;;;;;13.65;3.72;;;;;;;20.88;42.06;100938.38;10379619;28;20046;-71
2023/05/26 10:26:37;;;;;;;10.68;4.07;;;;;;;20.40;43.81;100934.97;10380052;28;20427;-70
2023/05/26 10:31:40;;;;;;;10.40;4.45;;;;;;;20.91;44.24;100918.63;10377535;28;20407;-71
2023/05/26 10:36:42;;;;;;;9.65;4.15;;;;;;;20.99;43.34;100924.38;10376035;28;20052;-71
2023/05/26 10:41:51;;;;;;;10.77;3.78;;;;;;;21.36;41.39;100919.44;10377207;28;20050;-70
2023/05/26 10:47:04;;;;;;;7.63;3.08;;;;;;;21.77;38.01;100914.13;10379882;28;20558;-71
2023/05/26 10:52:13;;;;;;;9.02;2.67;;;;;;;21.98;37.54;100921.75;10377779;28;20045;-71
2023/05/26 10:57:32;;;;;;;9.77;3.38;;;;;;;22.21;37.23;100907.72;10376421;28;20088;-70
2023/05/26 11:02:37;;;;;;;5.47;2.72;;;;;;;22.88;34.11;100908.50;10376156;28;20045;-71
2023/05/26 11:07:38;;;;;;;5.90;2.53;;;;;;;21.72;33.34;100915.41;10379595;28;20094;-71
2023/05/26 11:12:49;;;;;;;6.63;2.03;;;;;;;21.67;32.20;100913.88;10378069;28;20049;-71
2023/05/26 11:18:09;;;;;;;7.35;2.50;;;;;;;22.01;32.55;100917.06;10376858;28;20069;-71
2023/05/26 11:23:12;;;;;;;6.68;3.20;;;;;;;22.64;34.06;100903.00;10377090;28;20042;-70
2023/05/26 11:28:18;;;;;;;7.25;2.85;;;;;;;22.28;34.11;100910.88;10376802;28;20034;-70
2023/05/26 11:33:21;;;;;;;7.72;2.83;;;;;;;22.35;33.79;100904.13;10384121;28;20049;-70
2023/05/26 11:38:22;;;;;;;6.97;3.10;;;;;;;23.05;32.89;100888.59;10384755;28;20457;-70
2023/05/26 11:43:24;;;;;;;5.63;2.95;;;;;;;23.64;32.14;100904.03;10384426;28;20065;-70
2023/05/26 11:48:31;;;;;;;7.90;2.83;;;;;;;22.90;33.29;100895.03;10383738;28;20066;-70
2023/05/26 11:53:33;;;;;;;6.97;2.80;;;;;;;22.63;33.99;100893.25;10386570;28;20049;-70
2023/05/26 11:58:56;;;;;;;6.68;3.28;;;;;;;23.05;31.48;100888.59;10383916;28;20445;-71
2023/05/26 12:04:00;;;;;;;6.22;2.55;;;;;;;22.98;30.65;100891.81;10382428;28;20088;-70
2023/05/26 12:09:08;;;;;;;6.32;2.97;;;;;;;22.29;32.20;100870.56;10383845;28;20041;-70
2023/05/26 12:14:12;;;;;;;6.72;3.20;;;;;;;22.82;33.51;100875.91;10383896;28;20500;-70
2023/05/26 12:19:18;;;;;;;8.80;3.17;;;;;;;22.60;32.01;100877.38;10380814;28;20038;-71
2023/05/26 12:24:33;;;;;;;6.43;3.10;;;;;;;22.96;33.54;100867.78;10382984;28;20117;-70
2023/05/26 12:29:37;;;;;;;7.82;3.20;;;;;;;23.12;33.51;100879.16;10383268;28;20407;-69
2023/05/26 12:34:40;;;;;;;6.43;2.95;;;;;;;22.64;32.91;100873.53;10366270;28;20053;-71
2023/05/26 12:39:42;;;;;;;7.25;2.83;;;;;;;22.80;33.91;100878.72;10383050;28;20038;-70
2023/05/26 12:44:44;;;;;;;9.05;3.25;;;;;;;22.90;32.72;100877.13;10382275;28;20096;-70
2023/05/26 12:49:46;;;;;;;6.47;2.90;;;;;;;23.47;32.88;100873.09;10384098;28;20042;-70
2023/05/26 12:54:48;;;;;;;6.45;2.47;;;;;;;22.65;31.87;100872.56;10384985;28;20061;-71
2023/05/26 12:59:49;;;;;;;5.55;2.85;;;;;;;22.95;32.01;100874.13;10382290;28;20487;-70
2023/05/26 13:04:53;;;;;;;9.27;2.15;;;;;;;22.34;31.84;100867.59;10400713;28;20072;-71
2023/05/26 13:09:55;;;;;;;7.38;2.95;;;;;;;22.76;31.99;100871.84;10421498;28;20068;-70
2023/05/26 13:14:56;;;;;;;7.25;2.83;;;;;;;22.46;31.68;100860.53;10420820;28;20045;-72
2023/05/26 13:19:58;;;;;;;7.00;3.08;;;;;;;22.34;31.60;100852.38;10423131;28;20411;-70
2023/05/26 13:25:01;;;;;;;5.70;2.85;;;;;;;22.21;31.79;100848.81;10421442;28;20052;-72
2023/05/26 13:30:03;;;;;;;6.68;2.65;;;;;;;22.34;32.55;100846.16;10395696;28;20073;-71
2023/05/26 13:35:06;;;;;;;5.93;2.97;;;;;;;22.08;33.13;100846.06;10379865;28;20068;-70
2023/05/26 13:40:08;;;;;;;5.70;2.95;;;;;;;22.24;31.92;100847.75;10381886;28;20076;-71
2023/05/26 13:45:11;;;;;;;8.00;3.00;;;;;;;21.77;33.04;100851.72;10379218;28;20046;-71
2023/05/26 13:50:12;;;;;;;6.18;2.70;;;;;;;22.05;32.45;100846.28;10377320;28;20069;-71
2023/05/26 13:55:22;;;;;;;9.38;2.72;;;;;;;22.51;32.41;100840.50;10380402;28;20105;-69
2023/05/26 14:00:24;;;;;;;4.97;2.80;;;;;;;22.37;31.89;100835.25;10383589;28;20046;-70
2023/05/26 14:05:29;;;;;;;7.65;3.30;;;;;;;22.30;32.58;100837.47;10382939;28;20081;-71
2023/05/26 14:10:37;;;;;;;5.50;3.00;;;;;;;22.16;32.88;100834.88;10381626;28;20042;-71
2023/05/26 14:15:39;;;;;;;7.65;2.80;;;;;;;21.88;32.33;100834.00;10379342;28;20054;-71
2023/05/26 14:20:42;;;;;;;6.70;2.90;;;;;;;22.25;32.55;100831.56;10379982;28;20065;-72
2023/05/26 14:26:03;;;;;;;7.95;2.83;;;;;;;22.37;31.99;100830.75;10379052;28;20045;-72
2023/05/26 14:31:05;;;;;;;6.15;2.80;;;;;;;22.44;31.64;100830.31;10376554;28;20069;-71
2023/05/26 14:36:07;;;;;;;10.68;3.35;;;;;;;22.58;31.26;100832.91;10377579;28;20392;-71
2023/05/26 14:41:15;;;;;;;11.63;3.53;;;;;;;22.88;31.42;100828.06;10377490;28;20484;-71
2023/05/26 14:46:18;;;;;;;5.80;2.42;;;;;;;22.99;29.80;100827.34;10378680;28;20133;-71
2023/05/26 14:51:20;;;;;;;8.75;2.88;;;;;;;22.35;31.26;100827.28;10378238;28;20073;-70
2023/05/26 14:56:22;;;;;;;7.72;2.88;;;;;;;22.54;30.32;100826.06;10377463;28;20053;-72
2023/05/26 15:01:24;;;;;;;5.05;2.60;;;;;;;22.53;30.93;100821.63;10377189;28;20437;-70
2023/05/26 15:06:27;;;;;;;6.93;2.70;;;;;;;23.44;29.51;100819.63;10387220;28;20050;-70
2023/05/26 15:11:29;;;;;;;5.78;2.88;;;;;;;23.32;29.91;100824.06;10389933;28;20121;-70
2023/05/26 15:16:33;;;;;;;6.28;2.88;;;;;;;23.14;30.43;100833.44;10389821;28;20057;-70
2023/05/26 15:21:35;;;;;;;7.70;2.70;;;;;;;22.96;30.00;100824.03;10389519;28;20038;-70
2023/05/26 15:26:40;;;;;;;8.93;2.73;;;;;;;23.14;30.29;100826.25;10389306;28;20038;-70
2023/05/26 15:31:42;;;;;;;9.90;2.90;;;;;;;21.81;31.06;100816.63;10390475;28;20044;-71
2023/05/26 15:36:48;;;;;;;6.55;2.90;;;;;;;22.81;30.44;100820.59;10389000;28;20100;-69
2023/05/26 15:41:50;;;;;;;9.65;4.90;;;;;;;22.42;29.82;100819.72;10390145;28;20458;-69
2023/05/26 15:46:53;;;;;;;8.63;3.08;;;;;;;22.78;30.15;100812.75;10388033;28;20132;-69
2023/05/26 15:51:54;;;;;;;7.72;3.00;;;;;;;22.79;30.98;100817.13;10389145;28;20053;-70
2023/05/26 15:56:56;;;;;;;6.50;2.80;;;;;;;22.82;29.73;100803.53;10388413;28;20605;-70
2023/05/26 16:02:03;;;;;;;7.07;2.95;;;;;;;22.54;32.06;100810.84;10391727;28;20132;-70
2023/05/26 16:07:05;;;;;;;13.10;3.10;;;;;;;22.30;30.87;100796.44;10422030;23;20051;-73
2023/05/26 16:12:07;;;;;;;8.40;3.08;;;;;;;22.15;30.83;100809.06;10447400;28;20073;-73
2023/05/26 16:17:09;;;;;;;4.97;2.25;;;;;;;21.80;30.15;100798.88;10426288;28;20119;-70
2023/05/26 16:22:11;;;;;;;5.45;2.53;;;;;;;21.64;29.60;100800.81;10424630;28;20046;-71
2023/05/26 16:27:12;;;;;;;8.55;3.90;;;;;;;21.38;30.10;100806.09;10422609;28;20045;-70
2023/05/26 16:32:14;;;;;;;5.63;2.55;;;;;;;21.52;30.02;100794.50;10423988;28;20049;-71
2023/05/26 16:37:16;;;;;;;6.18;2.33;;;;;;;21.72;29.94;100800.34;10423596;28;20041;-71
2023/05/26 16:42:18;;;;;;;8.57;2.85;;;;;;;21.44;29.92;100793.28;10425454;28;20486;-73
2023/05/26 16:47:20;;;;;;;6.90;2.85;;;;;;;21.05;29.51;100795.69;10422559;28;20091;-73
2023/05/26 16:52:22;;;;;;;7.82;2.85;;;;;;;20.47;29.93;100798.41;10422672;28;20463;-72
2023/05/26 16:57:24;;;;;;;7.10;3.00;;;;;;;20.49;30.95;100791.19;10424481;28;20037;-72
2023/05/26 17:02:26;;;;;;;5.22;2.83;;;;;;;20.53;30.10;100798.91;10425291;28;20045;-72
2023/05/26 17:07:28;;;;;;;6.50;2.22;;;;;;;20.38;30.94;100798.00;10434286;28;20053;-73
2023/05/26 17:12:30;;;;;;;5.80;2.50;;;;;;;20.19;30.79;100801.88;10456268;28;20580;-72
2023/05/26 17:17:32;;;;;;;5.55;2.65;;;;;;;20.06;31.25;100796.44;10464387;28;20457;-72
2023/05/26 17:22:34;;;;;;;8.05;3.13;;;;;;;19.70;32.07;100794.97;10463010;28;20041;-72
2023/05/26 17:27:35;;;;;;;5.88;2.30;;;;;;;19.55;31.22;100801.97;10462761;28;20509;-73
2023/05/26 17:32:37;;;;;;;4.40;2.10;;;;;;;19.53;31.67;100806.56;10465318;28;20124;-73
2023/05/26 17:37:40;;;;;;;5.25;1.90;;;;;;;19.41;31.53;100810.75;10464405;28;20056;-72
2023/05/26 17:42:42;;;;;;;8.88;2.55;;;;;;;19.46;31.74;100810.50;10464166;28;20067;-73
2023/05/26 17:47:44;;;;;;;8.27;2.50;;;;;;;19.29;32.26;100813.25;10465790;28;20090;-73
2023/05/26 17:52:47;;;;;;;4.47;2.55;;;;;;;19.33;33.06;100817.47;10465380;28;20128;-72
2023/05/26 17:57:49;;;;;;;4.50;2.25;;;;;;;19.16;33.42;100819.25;10462188;28;20091;-72
2023/05/26 18:02:52;;;;;;;4.43;2.30;;;;;;;18.92;33.74;100823.25;10461240;28;20115;-72
2023/05/26 18:07:54;;;;;;;8.20;3.25;;;;;;;18.88;33.72;100827.03;10460875;28;20103;-73
2023/05/26 18:12:56;;;;;;;7.43;2.67;;;;;;;18.54;34.84;100819.94;10460928;28;20088;-74
2023/05/26 18:17:59;;;;;;;6.00;3.20;;;;;;;18.43;35.37;100827.63;10460803;28;20043;-73
2023/05/26 18:23:01;;;;;;;6.70;2.83;;;;;;;18.15;36.12;100831.72;10460716;28;20115;-73
2023/05/26 18:28:04;;;;;;;5.55;2.42;;;;;;;18.18;36.18;100831.53;10462127;28;20483;-72
2023/05/26 18:33:06;;;;;;;7.18;3.15;;;;;;;17.97;37.02;100841.44;10460955;28;20414;-73
2023/05/26 18:38:09;;;;;;;10.65;3.38;;;;;;;17.85;37.01;100848.25;10462375;28;20483;-74
2023/05/26 18:43:10;;;;;;;5.22;3.28;;;;;;;17.83;38.06;100852.75;10460327;28;20099;-73
2023/05/26 18:48:12;;;;;;;6.47;3.00;;;;;;;17.63;37.94;100855.50;10460566;28;20090;-74
2023/05/26 18:53:14;;;;;;;11.98;3.58;;;;;;;17.47;38.23;100863.34;10464415;28;20494;-74
2023/05/26 18:58:17;;;;;;;6.25;3.47;;;;;;;17.23;38.84;100868.00;10463705;28;20041;-75
2023/05/26 19:03:18;;;;;;;8.35;3.55;;;;;;;17.20;38.66;100870.81;10463157;28;20051;-74
2023/05/26 19:08:20;;;;;;;5.65;2.80;;;;;;;17.01;37.99;100875.25;10460806;28;20052;-74
2023/05/26 19:13:22;;;;;;;5.35;2.55;;;;;;;16.90;39.05;100883.66;10461807;28;20041;-74
2023/05/26 19:18:25;;;;;;;8.48;2.60;;;;;;;16.69;39.41;100892.53;10460115;28;20044;-73
2023/05/26 19:23:30;;;;;;;5.63;2.67;;;;;;;16.44;39.39;100901.56;10461460;28;20037;-74
2023/05/26 19:28:32;;;;;;;5.30;2.67;;;;;;;16.23;38.83;100902.47;10442899;28;20041;-73
2023/05/26 19:33:36;;;;;;;5.22;2.88;;;;;;;15.99;39.67;100909.63;10459185;28;20079;-73
2023/05/26 19:38:38;;;;;;;7.72;2.75;;;;;;;15.96;38.34;100913.25;10458619;28;20033;-75
2023/05/26 19:43:39;;;;;;;5.43;2.55;;;;;;;15.87;39.17;100921.59;10458769;28;20056;-73
2023/05/26 19:48:41;;;;;;;6.07;2.30;;;;;;;15.83;39.03;100922.63;10459617;28;20048;-75
2023/05/26 19:53:43;;;;;;;10.13;2.85;;;;;;;15.64;39.19;100928.66;10465939;28;20041;-74
2023/05/26 19:58:45;;;;;;;6.65;3.42;;;;;;;15.72;38.68;100935.44;10467523;28;20083;-73
2023/05/26 20:03:46;;;;;;;6.13;2.92;;;;;;;15.56;39.23;100937.78;10466300;28;20147;-72
2023/05/26 20:08:48;;;;;;;6.47;2.88;;;;;;;15.45;39.35;100937.31;10467030;28;20494;-73
2023/05/26 20:13:50;;;;;;;6.53;3.03;;;;;;;15.20;39.94;100943.53;10467280;28;20053;-73
2023/05/26 20:18:52;;;;;;;7.60;3.33;;;;;;;15.32;40.15;100943.09;10449930;28;20037;-74
2023/05/26 20:23:53;;;;;;;7.82;3.22;;;;;;;15.24;40.56;100949.59;10466328;28;20102;-73
2023/05/26 20:28:55;;;;;;;5.63;2.55;;;;;;;15.21;40.59;100958.50;10467206;28;20051;-73
2023/05/26 20:33:57;;;;;;;9.63;2.85;;;;;;;15.08;41.31;100965.16;10464792;28;20049;-73
2023/05/26 20:38:59;;;;;;;6.10;2.90;;;;;;;14.92;41.39;100966.59;10460113;28;20905;-73
2023/05/26 20:44:01;;;;;;;6.88;2.85;;;;;;;15.18;41.12;100977.13;10439665;28;20041;-73
2023/05/26 20:49:03;;;;;;;6.20;2.58;;;;;;;14.97;41.95;100972.63;10421770;28;20552;-73
2023/05/26 20:54:05;;;;;;;6.80;3.05;;;;;;;14.80;42.69;100975.84;10424516;28;20419;-73
2023/05/26 20:59:07;;;;;;;5.85;2.85;;;;;;;14.77;42.67;100979.44;10450606;28;20083;-73
2023/05/26 21:04:09;;;;;;;9.45;3.30;;;;;;;14.51;43.85;100985.59;10463528;28;20044;-73
2023/05/26 21:09:11;;;;;;;8.95;3.65;;;;;;;14.46;44.10;100986.66;10463240;28;20057;-73
2023/05/26 21:14:13;;;;;;;7.60;3.58;;;;;;;14.69;43.62;100983.25;10464168;28;20079;-73
2023/05/26 21:19:15;;;;;;;8.05;2.95;;;;;;;14.34;44.97;100986.16;10464706;28;20037;-73
2023/05/26 21:24:17;;;;;;;8.25;2.95;;;;;;;14.29;45.06;100982.75;10464247;28;20040;-73
2023/05/26 21:29:19;;;;;;;6.65;3.22;;;;;;;14.32;45.35;100987.09;10464008;28;20068;-73
2023/05/26 21:34:21;;;;;;;7.15;3.42;;;;;;;14.18;45.90;100995.47;10466288;28;20048;-73
2023/05/26 21:39:23;;;;;;;6.57;2.78;;;;;;;14.02;46.69;101005.63;10463673;28;20037;-73
2023/05/26 21:44:25;;;;;;;8.07;3.33;;;;;;;14.11;46.23;101012.44;10464841;28;20502;-75
2023/05/26 21:49:27;;;;;;;10.75;3.63;;;;;;;13.97;47.46;101014.63;10464660;28;20090;-73
2023/05/26 21:54:29;;;;;;;9.75;3.17;;;;;;;13.86;47.61;101010.53;10464129;28;20513;-73
2023/05/26 21:59:30;;;;;;;8.07;3.22;;;;;;;13.84;47.99;101014.13;10464660;28;20045;-72
2023/05/26 22:04:33;;;;;;;10.75;3.65;;;;;;;13.47;48.56;101023.13;10464229;28;20052;-73
2023/05/26 22:09:35;;;;;;;7.50;3.30;;;;;;;13.40;49.39;101024.19;10435032;22;20455;-70
2023/05/26 22:14:36;;;;;;;8.88;5.50;;;;;;;13.52;49.33;101033.56;10415928;28;20125;-70
2023/05/26 22:19:38;;;;;;;7.65;3.95;;;;;;;13.34;49.79;101032.28;10415886;28;20162;-70
2023/05/26 22:24:40;;;;;;;9.30;3.40;;;;;;;13.23;51.25;101036.97;10415414;28;20041;-70
2023/05/26 22:29:42;;;;;;;7.97;2.58;;;;;;;13.18;51.55;101028.28;10416015;28;20069;-70
2023/05/26 22:34:44;;;;;;;5.40;2.47;;;;;;;13.14;51.48;101031.00;10415577;28;20072;-71
2023/05/26 22:39:46;;;;;;;6.97;2.78;;;;;;;13.10;52.71;101032.03;10416521;28;20052;-71
2023/05/26 22:44:47;;;;;;;12.15;3.40;;;;;;;13.16;52.51;101028.34;10415691;28;20061;-71
2023/05/26 22:49:49;;;;;;;5.85;2.67;;;;;;;12.85;53.75;101036.19;10415191;28;20490;-71
2023/05/26 22:54:51;;;;;;;7.97;2.90;;;;;;;12.90;54.30;101043.97;10414873;28;20045;-71
2023/05/26 22:59:53;;;;;;;5.13;2.50;;;;;;;12.68;54.95;101048.94;10413997;28;20129;-71
2023/05/26 23:04:54;;;;;;;8.27;3.60;;;;;;;12.66;54.89;101056.00;10414831;28;20125;-72
2023/05/26 23:09:56;;;;;;;7.97;3.95;;;;;;;12.58;55.88;101059.69;10414943;28;20430;-69